»·PEaware :: WAT397 KOAK-KEUG

WAT397 :: KOAK-KEUG

FLIGHT INFORMATION

Flight Status: Arrived
Operator:
Walker Air Transport
More flights by this operator :: More flights under this callsign
Pilot: Ricardo M. (29263)
Aircraft: BOEING 727-200
(B722)
More flights by this aircraft type
Origin: KOAK Metro Oakland Intl
United States
Destination: KEUG Mahlon Sweet
United States
More flights between these airports :: More routes between these airports
Route: OAK5 RBL J126 OED V23 EUG
File this flight plan on PilotEdge
Remarks:
Altitude:
(Current/Filed)
34,000ft
Speed:
(Current/Filed)
330kts
Departed: 17-Sep-21 08:41 PM
Arrived: 17-Sep-21 09:51 PM
Distance/Time
Traveled:
386nm/1:10
Distance/Time
To Go:
Arrived

Flight Plot

Page will automatically refresh every two minutes.

Flight plan parsing failed; only flown route is shown


Map Options




Map Legend


Flown Route
Filed Route
Departure Airport
Arrival Airport
Navaid (VOR, NDB)
Fix

Horizontal Profiles

Position Reports

Time Latitude Longitude Heading Altitude Ground
Speed
17-Sep-21 20:17 37.711293 -122.216509 141 19ft 0kts
17-Sep-21 20:18 37.711293 -122.216509 141 19ft 0kts
17-Sep-21 20:19 37.711293 -122.216509 141 19ft 0kts
17-Sep-21 20:20 37.711293 -122.216509 141 19ft 0kts
17-Sep-21 20:21 37.711293 -122.216509 141 19ft 0kts
17-Sep-21 20:22 37.711293 -122.216509 141 19ft 0kts
17-Sep-21 20:23 37.711293 -122.216509 141 19ft 0kts
17-Sep-21 20:24 37.711293 -122.216509 141 19ft 0kts
17-Sep-21 20:25 37.711293 -122.216509 141 19ft 0kts
17-Sep-21 20:26 37.711293 -122.216509 141 19ft 0kts
17-Sep-21 20:27 37.711293 -122.216509 141 19ft 0kts
17-Sep-21 20:28 37.711293 -122.216509 141 19ft 0kts
17-Sep-21 20:29 37.711360 -122.217115 51 19ft 2kts
17-Sep-21 20:30 37.711193 -122.217279 31 19ft 0kts
17-Sep-21 20:31 37.711193 -122.217279 31 19ft 0kts
17-Sep-21 20:31 37.711234 -122.217255 22 19ft 5kts
17-Sep-21 20:33 37.709123 -122.216454 130 19ft 23kts
17-Sep-21 20:34 37.704346 -122.214792 129 18ft 27kts
17-Sep-21 20:35 37.702831 -122.213576 163 19ft 0kts
17-Sep-21 20:36 37.702831 -122.213576 163 19ft 0kts
17-Sep-21 20:36 37.702831 -122.213576 163 19ft 0kts
17-Sep-21 20:37 37.702831 -122.213576 163 19ft 0kts
17-Sep-21 20:38 37.702831 -122.213576 163 19ft 0kts
17-Sep-21 20:40 37.701802 -122.214377 265 19ft 20kts
17-Sep-21 20:40 37.703123 -122.216698 309 18ft 54kts
17-Sep-21 20:41 37.731277 -122.257882 309 1627ft 181kts
17-Sep-21 20:42 37.770194 -122.311582 308 2784ft 199kts
17-Sep-21 20:43 37.808542 -122.367991 306 5250ft 228kts
17-Sep-21 20:44 37.869895 -122.375210 11 8914ft 248kts
17-Sep-21 20:45 37.938501 -122.357137 12 12433ft 261kts
17-Sep-21 20:46 38.009845 -122.338284 12 15704ft 267kts
17-Sep-21 20:47 38.083541 -122.321827 7 18544ft 275kts
17-Sep-21 20:48 38.159116 -122.302850 13 21117ft 281kts
17-Sep-21 20:49 38.233190 -122.276391 16 23701ft 277kts
17-Sep-21 20:50 38.308345 -122.252476 14 25752ft 284kts
17-Sep-21 20:51 38.386989 -122.236308 7 27597ft 291kts
17-Sep-21 20:52 38.468666 -122.235167 358 29212ft 299kts
17-Sep-21 20:53 38.552085 -122.250269 351 30623ft 309kts
17-Sep-21 20:54 38.637380 -122.274543 350 31822ft 319kts
17-Sep-21 20:55 38.725544 -122.295142 355 32941ft 326kts
17-Sep-21 20:56 38.815996 -122.299868 4 34008ft 330kts
17-Sep-21 20:57 38.911375 -122.284114 12 34065ft 365kts
17-Sep-21 20:58 39.016014 -122.255173 12 34001ft 405kts
17-Sep-21 20:59 39.122830 -122.294855 317 33989ft 447kts
17-Sep-21 21:00 39.212416 -122.414891 315 33988ft 483kts
17-Sep-21 21:01 39.335490 -122.466745 5 33989ft 498kts
17-Sep-21 21:02 39.474061 -122.443290 11 33981ft 508kts
17-Sep-21 21:03 39.611178 -122.399520 16 33949ft 506kts
17-Sep-21 21:04 39.744326 -122.348475 15 33920ft 496kts
17-Sep-21 21:05 39.878004 -122.305677 13 33926ft 495kts
17-Sep-21 21:06 40.011630 -122.263993 14 33925ft 495kts
17-Sep-21 21:07 40.144792 -122.226254 358 34002ft 492kts
17-Sep-21 21:08 40.272212 -122.286361 348 33995ft 491kts
17-Sep-21 21:09 40.407036 -122.315566 350 34000ft 493kts
17-Sep-21 21:10 40.541930 -122.347240 349 34000ft 500kts
17-Sep-21 21:11 40.679558 -122.381806 348 34000ft 509kts
17-Sep-21 21:12 40.818983 -122.418620 347 34004ft 516kts
17-Sep-21 21:13 40.956943 -122.469958 339 34057ft 518kts
17-Sep-21 21:14 41.093471 -122.532952 341 34054ft 523kts
17-Sep-21 21:15 41.233175 -122.581858 346 34052ft 518kts
17-Sep-21 21:16 41.374424 -122.611584 351 34014ft 519kts
17-Sep-21 21:17 41.518416 -122.633800 351 33976ft 523kts
17-Sep-21 21:18 41.661845 -122.665817 345 33983ft 523kts
17-Sep-21 21:19 41.802528 -122.713656 341 33981ft 524kts
17-Sep-21 21:20 41.943285 -122.763891 343 33979ft 527kts
17-Sep-21 21:21 42.087227 -122.803740 345 33923ft 531kts
17-Sep-21 21:22 42.231606 -122.840921 344 33925ft 532kts
17-Sep-21 21:23 42.375791 -122.883159 343 33926ft 532kts
17-Sep-21 21:24 42.521455 -122.918135 349 33935ft 534kts
17-Sep-21 21:25 42.664796 -122.948179 347 33200ft 507kts
17-Sep-21 21:26 42.802918 -122.974584 347 31390ft 509kts
17-Sep-21 21:27 42.945506 -122.997088 349 29514ft 527kts
17-Sep-21 21:28 43.093216 -123.019695 349 27629ft 542kts
17-Sep-21 21:29 43.242527 -123.050226 342 25741ft 546kts
17-Sep-21 21:30 43.391991 -123.094230 344 23850ft 554kts
17-Sep-21 21:31 43.544106 -123.130046 347 21965ft 560kts
17-Sep-21 21:32 43.698142 -123.157450 349 20073ft 549kts
17-Sep-21 21:33 43.844376 -123.175833 350 18043ft 510kts
17-Sep-21 21:34 43.976051 -123.184071 14 15856ft 449kts
17-Sep-21 21:35 44.083365 -123.116889 23 13657ft 401kts
17-Sep-21 21:36 44.175497 -123.055894 10 11429ft 332kts
17-Sep-21 21:37 44.259796 -123.048706 356 9234ft 288kts
17-Sep-21 21:38 44.334389 -123.048734 355 7125ft 275kts
17-Sep-21 21:39 44.408724 -123.049627 355 4963ft 270kts
17-Sep-21 21:40 44.466824 -123.082026 272 3433ft 214kts
17-Sep-21 21:41 44.461543 -123.163148 257 2970ft 214kts
17-Sep-21 21:42 44.420500 -123.210412 207 2709ft 195kts
17-Sep-21 21:43 44.370302 -123.231993 167 1978ft 184kts
17-Sep-21 21:44 44.322689 -123.220817 178 1992ft 167kts
17-Sep-21 21:45 44.274817 -123.219881 183 2006ft 177kts
17-Sep-21 21:46 44.228652 -123.220495 182 2004ft 156kts
17-Sep-21 21:47 44.190144 -123.220301 182 1417ft 122kts
17-Sep-21 21:48 44.156205 -123.219240 180 788ft 120kts
17-Sep-21 21:49 44.122851 -123.218971 179 373ft 83kts
17-Sep-21 21:50 44.120282 -123.217869 133 373ft 4kts
17-Sep-21 21:51 44.118885 -123.214372 72 375ft 0kts
17-Sep-21 21:52 44.118855 -123.213716 113 375ft 0kts
17-Sep-21 21:53 44.118855 -123.213716 113 375ft 0kts

Navigation Log

Ident Type
Flight plan parsing failed, navigation log unavailable